Latest Coastal Weather Observations for Ceduna

IDS60701

Issued at 4:01 am CST Friday 29 May 2015 (issued every 10 minutes, with the page automatically refreshed every 10 minutes)

About coastal observations | Map of coastal stations | Coastal observations for SA | Marine services | Other Formats
Station Details ID: 018012 Name: CEDUNA AMO Lat: -32.13 Lon: 133.70 Height: 15.3 m
Data from the previous 72 hours. | See also: Recent months at Ceduna
Date/Time
CST
Temp

°C
Wind Pressure Rain
since 9am
mm
Weather Cloud Vis
km
Sea
Height
m
Swell
Dir
 
Speed
knots
Gust
knots
hPa Trend Height
m
Period
s
Dir
29/04:00am 8.7 NE 5 6 1024.0 - 0.0 - Partly cloudy 2 - - - -
29/03:49am 8.2 NE 3 5 1024.0 - 0.0 - Partly cloudy 0.1 - - - -
29/03:30am 7.4 NE 3 4 1023.9 - 0.0 - Partly cloudy 0 - - - -
29/03:15am 7.1 ENE 5 5 1023.5 - 0.0 - - 0 - - - -
29/03:00am 6.7 NE 4 5 1023.5 R 0.0 - - 0.2 - - - -
29/02:57am 6.9 NE 4 5 1023.5 - 0.0 - - 0.2 - - - -
29/02:48am 7.5 NNE 2 4 1023.5 - 0.0 - Partly cloudy 0.1 - - - -
29/02:44am 7.9 NNE 3 4 1023.5 - 0.0 - Partly cloudy 0 - - - -
29/02:30am 8.4 NNE 4 5 1023.4 - 0.0 - Partly cloudy 0.1 - - - -
29/02:18am 7.9 NNE 3 4 1023.5 - 0.0 - Partly cloudy 0.2 - - - -
29/02:17am 7.9 NNE 3 4 1023.5 - 0.0 - Partly cloudy 0.2 - - - -
29/02:01am 8.6 CALM 0 0 1023.6 - 0.0 - Partly cloudy 0.3 - - - -
29/02:00am 8.7 CALM 0 0 1023.6 - 0.0 - Partly cloudy 0.2 - - - -
29/01:30am 8.1 S 2 4 1023.4 - 0.0 - - 0.1 - - - -
29/01:02am 8.6 CALM 0 0 1023.3 - 0.0 - Partly cloudy 0.3 - - - -
29/01:00am 8.6 CALM 0 0 1023.3 - 0.0 - Partly cloudy 0.2 - - - -
29/12:41am 9.5 CALM 0 3 1023.4 - 0.0 - Partly cloudy 0.2 - - - -
29/12:30am 9.6 ENE 2 3 1023.5 - 0.0 - Partly cloudy 0.2 - - - -
29/12:00am 10.3 NE 2 5 1023.3 R 0.0 - Cloudy 0.2 - - - -
 
Date/Time
CST
Temp

°C
Wind Pressure Rain
since 9am
mm
Weather Cloud Vis
km
Sea
Height
m
Swell
Dir
 
Speed
knots
Gust
knots
hPa Trend Height
m
Period
s
Dir
28/11:30pm 10.8 CALM 0 0 1023.7 - 0.0 - Partly cloudy 1 - - - -
28/11:00pm 11.1 CALM 0 0 1023.5 - 0.0 - Partly cloudy 0.5 - - - -
28/10:49pm 11.7 CALM 0 0 1023.3 - 0.0 - Partly cloudy 4 - - - -
28/10:30pm 12.3 CALM 0 0 1023.4 - 0.0 - Partly cloudy 10 - - - -
28/10:00pm 12.5 N 2 4 1023.1 - 0.0 - Partly cloudy 10 - - - -
28/09:50pm 12.5 ENE 3 4 1023.0 - 0.0 - Partly cloudy 10 - - - -
28/09:30pm 11.7 ENE 3 5 1022.7 - 0.0 - Partly cloudy 0.6 - - - -
28/09:01pm 12.3 NNE 1 4 1023.1 - 0.0 - - 5 - - - -
28/09:00pm 12.2 NNE 1 4 1023.1 R 0.0 - Mostly cloudy 6 - - - -
28/08:30pm 12.9 ENE 6 7 1022.5 - 0.0 - - 10 - - - -
28/08:10pm 13.2 ENE 5 7 1022.5 - 0.0 - - 10 - - - -
28/08:00pm 13.3 E 3 4 1022.4 - 0.0 - - 3 - - - -
28/07:30pm 14.3 SSW 4 5 1022.1 - 0.0 - - 4 - - - -
28/07:24pm 14.4 SSW 4 5 1022.0 - 0.0 - - 5 - - - -
28/07:00pm 14.7 SSW 5 6 1021.9 - 0.0 - - 10 - - - -
28/06:30pm 14.3 SW 3 4 1021.5 - 0.0 - - 10 - - - -
28/06:00pm 14.7 SW 4 5 1021.4 R 0.0 - Cloudy 10 - - - -
28/05:30pm 15.1 S 5 6 1020.7 - 0.0 - Partly cloudy 10 - - - -
28/05:00pm 16.0 SW 5 7 1020.8 - 0.0 - - 10 - - - -
28/04:30pm 16.5 SSW 6 8 1020.3 - 0.0 - - 10 - - - -
28/04:00pm 17.0 SW 7 8 1020.3 - 0.0 - - 10 - - - -
28/03:30pm 17.7 WSW 7 8 1020.3 - 0.0 - - 10 - - - -
28/03:00pm 18.6 WSW 7 10 1020.2 R 0.0 - Mostly clear 10 - - - -
28/02:30pm 18.6 WSW 8 11 1020.3 - 0.0 - Partly cloudy 10 - - - -
28/02:00pm 18.7 WSW 5 7 1020.1 - 0.0 - Partly cloudy 10 - - - -
28/01:30pm 18.9 W 5 7 1020.3 - 0.0 - - 10 - - - -
28/01:00pm 18.9 NW 4 7 1020.4 - 0.0 - Partly cloudy 10 - - - -
28/12:30pm 18.3 NNW 5 6 1020.7 - 0.0 - Partly cloudy 10 - - - -
28/12:12pm 17.1 NNW 5 7 1020.9 - 0.0 - Partly cloudy 10 - - - -
28/12:00pm 16.5 N 5 7 1021.0 F 0.0 - Cloudy 10 - - - -
28/11:30am 15.4 N 5 7 1021.3 - 0.0 - Cloudy 9 - - - -
28/11:29am 15.2 N 5 7 1021.3 - 0.0 - Cloudy 8 - - - -
28/11:00am 14.7 N 4 7 1021.7 - 0.0 - Cloudy 1 - - - -
28/10:30am 14.4 N 5 6 1021.9 - 0.0 - Cloudy 0.5 - - - -
28/10:00am 13.9 N 4 6 1022.0 - 0.0 - Cloudy 0.3 - - - -
28/09:30am 13.7 N 3 5 1021.8 - 0.0 - Cloudy 0.1 - - - -
28/09:00am 12.7 N 4 5 1021.7 R 0.2 - Cloudy 0.2 - - - -
28/08:30am 12.0 N 1 5 1021.5 - 0.2 - Cloudy 0.2 - - - -
28/08:00am 11.4 NNW 4 4 1021.2 - 0.2 - Cloudy 0.3 - - - -
28/07:30am 11.2 CALM 0 0 1020.9 - 0.2 - Cloudy 0.2 - - - -
28/07:00am 11.4 CALM 0 0 1020.7 - 0.2 - Cloudy 0.1 - - - -
28/06:30am 11.2 NNE 4 5 1020.4 - 0.0 - Cloudy 0.3 - - - -
28/06:00am 10.9 N 4 5 1019.9 R 0.0 - Cloudy 0.3 - - - -
28/05:30am 10.5 CALM 0 0 1019.5 - 0.0 - Cloudy 0.2 - - - -
28/05:00am 10.1 CALM 0 0 1019.2 - 0.0 - Cloudy 0.5 - - - -
28/04:49am 9.8 CALM 0 0 1019.1 - 0.0 - Cloudy 5 - - - -
28/04:38am 9.6 NNE 3 4 1019.2 - 0.0 - Cloudy 10 - - - -
28/04:30am 9.8 ENE 2 4 1019.2 - 0.0 - Partly cloudy 10 - - - -
28/04:14am 8.3 SSE 2 4 1019.1 - 0.0 - Partly cloudy 0.3 - - - -
28/04:00am 8.4 SE 4 5 1019.0 - 0.0 - Partly cloudy 0.6 - - - -
28/03:30am 8.3 S 4 5 1019.0 - 0.0 - Partly cloudy 0.5 - - - -
28/03:00am 8.6 ENE 2 3 1019.0 F 0.0 - Partly cloudy 0.4 - - - -
28/02:30am 9.0 NE 3 5 1019.4 - 0.0 - Partly cloudy 0.7 - - - -
28/02:02am 10.0 NNE 4 5 1019.3 - 0.0 - Partly cloudy 0.6 - - - -
28/02:00am 9.9 NNE 4 5 1019.3 - 0.0 - Partly cloudy 0.5 - - - -
28/01:30am 10.4 N 5 6 1019.2 - 0.0 - Cloudy 0.1 - - - -
28/01:00am 10.9 N 4 5 1019.1 - 0.0 - Cloudy 0.3 - - - -
28/12:30am 11.9 NNE 5 6 1019.3 - 0.0 - Cloudy 0.1 - - - -
28/12:00am 9.9 N 3 4 1019.6 F 0.0 - Cloudy 0.1 - - - -
 
Date/Time
CST
Temp

°C
Wind Pressure Rain
since 9am
mm
Weather Cloud Vis
km
Sea
Height
m
Swell
Dir
 
Speed
knots
Gust
knots
hPa Trend Height
m
Period
s
Dir
27/11:35pm 9.6 N 3 4 1020.0 - 0.0 - Partly cloudy 0.3 - - - -
27/11:30pm 9.4 N 3 4 1019.9 - 0.0 - Partly cloudy 0.5 - - - -
27/11:16pm 10.3 N 4 5 1019.8 - 0.0 - Partly cloudy 5 - - - -
27/11:14pm 10.5 N 4 5 1019.8 - 0.0 - Partly cloudy 6 - - - -
27/11:00pm 10.4 N 5 6 1020.0 - 0.0 - Partly cloudy 5 - - - -
27/10:44pm 10.1 NNE 4 5 1019.9 - 0.0 - Partly cloudy 2 - - - -
27/10:40pm 10.3 NNE 4 5 1019.8 - 0.0 - Partly cloudy 5 - - - -
27/10:30pm 10.6 NNE 5 5 1020.0 - 0.0 - Partly cloudy 10 - - - -
27/10:25pm 10.8 NNE 5 6 1020.1 - 0.0 - Partly cloudy 10 - - - -
27/10:00pm 10.4 NNE 3 5 1020.1 - 0.0 - Partly cloudy 10 - - - -
27/09:30pm 9.8 CALM 0 0 1020.1 - 0.0 - Partly cloudy 10 - - - -
27/09:00pm 10.7 CALM 0 3 1020.1 R 0.0 - Mostly cloudy 10 - - - -
27/08:30pm 11.1 N 5 6 1019.9 - 0.0 - - 10 - - - -
27/08:00pm 10.8 CALM 0 1 1019.8 - 0.0 - - 10 - - - -
27/07:30pm 12.3 CALM 0 3 1019.4 - 0.0 - - 10 - - - -
27/07:00pm 14.1 S 1 3 1019.0 - 0.0 - - 10 - - - -
27/06:30pm 13.8 S 3 4 1018.8 - 0.0 - - 10 - - - -
27/06:00pm 15.3 S 4 5 1018.8 S 0.0 - - 10 - - - -
27/05:30pm 16.6 SSW 7 9 1018.6 - 0.0 - - 10 - - - -
27/05:00pm 18.0 SSW 8 10 1018.6 - 0.0 - - 10 - - - -
27/04:30pm 19.0 SSW 9 11 1018.6 - 0.0 - - 10 - - - -
27/04:00pm 19.8 SW 9 12 1018.6 - 0.0 - - 10 - - - -
27/03:30pm 19.5 SW 9 11 1018.3 - 0.0 - - 10 - - - -
27/03:00pm 21.2 SW 7 9 1018.3 F 0.0 - - 10 - - - -
27/02:30pm 21.1 SSW 6 8 1018.4 - 0.0 - - 10 - - - -
27/02:00pm 21.4 SW 7 9 1018.8 - 0.0 - - 10 - - - -
27/01:30pm 21.7 SW 7 10 1019.3 - 0.0 - - 10 - - - -
27/01:00pm 20.9 SW 7 9 1019.8 - 0.0 - - 10 - - - -
27/12:30pm 20.7 W 7 10 1020.3 - 0.0 - - 10 - - - -
27/12:00pm 20.6 WNW 6 9 1020.8 F 0.0 - - 10 - - - -
27/11:30am 20.2 WNW 7 9 1021.4 - 0.0 - - 10 - - - -
27/11:00am 19.6 NW 7 10 1021.7 - 0.0 - - 10 - - - -
27/10:30am 19.4 NW 7 10 1021.9 - 0.0 - - 10 - - - -
27/10:00am 17.9 NNW 6 7 1022.1 - 0.0 - - 10 - - - -
27/09:30am 16.0 N 5 6 1022.2 - 0.0 - - 10 - - - -
27/09:00am 13.5 N 5 5 1021.9 R 0.0 - - 10 - - - -
27/08:30am 10.8 NNE 5 5 1021.8 - 0.0 - - 10 - - - -
27/08:00am 8.4 NNE 5 6 1021.6 - 0.0 - - 10 - - - -
27/07:30am 7.6 N 4 5 1021.3 - 0.0 - - 7 - - - -
27/07:00am 7.2 NNE 5 6 1021.1 - 0.0 - - 10 - - - -
27/06:30am 6.7 NNE 5 6 1020.8 - 0.0 - - 10 - - - -
27/06:00am 7.4 NNE 5 6 1020.6 F 0.0 - - 10 - - - -
27/05:30am 7.7 NNE 5 5 1020.5 - 0.0 - - 10 - - - -
27/05:00am 7.8 NE 5 6 1020.6 - 0.0 - - 10 - - - -
27/04:30am 7.9 NE 3 5 1020.6 - 0.0 - - 10 - - - -
27/04:00am 8.8 NE 6 8 1020.6 - 0.0 - - 10 - - - -
27/03:30am 6.9 NE 4 5 1020.8 - 0.0 - - 10 - - - -
27/03:00am 8.6 NNE 3 4 1021.0 F 0.0 - - 6 - - - -
27/02:30am 8.4 N 4 4 1021.4 - 0.0 - - 10 - - - -
27/02:00am 8.9 N 5 5 1021.5 - 0.0 - - 10 - - - -
27/01:30am 8.6 N 3 3 1021.6 - 0.0 - - 10 - - - -
27/01:00am 8.8 N 4 5 1021.8 - 0.0 - - 10 - - - -
27/12:30am 8.8 N 3 3 1021.9 - 0.0 - - 10 - - - -
27/12:00am 10.1 N 4 5 1022.1 R 0.0 - - 10 - - - -
 
Date/Time
CST
Temp

°C
Wind Pressure Rain
since 9am
mm
Weather Cloud Vis
km
Sea
Height
m
Swell
Dir
 
Speed
knots
Gust
knots
hPa Trend Height
m
Period
s
Dir
26/11:30pm 10.3 N 3 3 1022.2 - 0.0 - - 10 - - - -
26/11:00pm 10.7 N 3 4 1022.2 - 0.0 - - 10 - - - -
26/10:30pm 11.5 N 4 5 1022.1 - 0.0 - - 10 - - - -
26/10:00pm 11.4 NNE 5 6 1022.3 - 0.0 - - 10 - - - -
26/09:30pm 12.1 N 2 5 1022.3 - 0.0 - - 10 - - - -
26/09:00pm 12.9 CALM 0 0 1022.2 F 0.0 - Mostly clear 10 - - - -
26/08:30pm 13.3 CALM 0 0 1022.2 - 0.0 - Partly cloudy 10 - - - -
26/08:00pm 13.2 CALM 0 0 1021.8 - 0.0 - Partly cloudy 10 - - - -
26/07:30pm 14.6 CALM 0 0 1021.6 - 0.0 - Partly cloudy 10 - - - -
26/07:00pm 15.0 CALM 0 0 1021.4 - 0.0 - Partly cloudy 10 - - - -
26/06:30pm 16.1 SW 5 6 1021.3 - 0.0 - Partly cloudy 10 - - - -
26/06:00pm 16.1 SSW 4 5 1021.5 R 0.0 - Mostly cloudy 10 - - - -
26/05:30pm 16.6 SW 4 5 1021.4 - 0.0 - Cloudy 10 - - - -
26/05:00pm 17.2 SSW 6 7 1021.2 - 0.0 - Partly cloudy 10 - - - -
26/04:30pm 17.6 SSW 8 9 1021.1 - 0.0 - Cloudy 10 - - - -
26/04:00pm 18.5 SW 9 12 1020.8 - 0.0 - Partly cloudy 10 - - - -
26/03:30pm 18.9 SW 9 11 1020.8 - 0.0 - Cloudy 10 - - - -
26/03:00pm 20.3 W 7 9 1020.6 F 0.0 - Partly cloudy 10 - - - -
26/02:30pm 21.2 NW 5 7 1020.6 - 0.0 - Partly cloudy 10 - - - -
26/02:00pm 21.5 N 3 5 1020.9 - 0.0 - Partly cloudy 10 - - - -
26/01:30pm 19.2 WNW 4 5 1021.4 - 0.0 - Cloudy 10 - - - -
26/01:00pm 18.5 W 7 9 1021.9 - 0.0 - Cloudy 10 - - - -
26/12:30pm 20.0 NNW 10 13 1022.2 - 0.0 - Partly cloudy 10 - - - -
26/12:00pm 20.4 NNW 11 15 1022.5 F 0.0 - Cloudy 10 - - - -
26/11:30am 20.8 N 12 15 1022.7 - 0.0 - Cloudy 10 - - - -
26/11:00am 19.7 N 11 15 1023.0 - 0.0 - Partly cloudy 10 - - - -
26/10:30am 19.2 N 12 16 1023.1 - 0.0 - Cloudy 10 - - - -
26/10:00am 18.7 N 10 15 1023.5 - 0.0 - Partly cloudy 10 - - - -
26/09:30am 17.7 N 8 12 1023.6 - 0.0 - Partly cloudy 10 - - - -
26/09:00am 15.6 N 1 4 1023.7 F 0.4 - Mostly clear 10 - - - -
26/08:30am 12.2 NNE 5 6 1023.6 - 0.4 - - 10 - - - -
26/08:00am 9.8 NE 5 7 1023.5 - 0.4 - - 10 - - - -
26/07:30am 8.8 NE 7 8 1023.3 - 0.4 - - 10 - - - -
26/07:00am 8.9 ENE 7 8 1023.2 - 0.4 - Partly cloudy 10 - - - -
26/06:30am 7.8 ENE 7 8 1023.1 - 0.4 - - 10 - - - -
26/06:00am 7.4 ENE 7 8 1023.3 F 0.4 - - 10 - - - -
26/05:30am 7.9 NE 5 6 1023.2 - 0.4 - - 10 - - - -
26/05:00am 8.9 NE 6 7 1023.3 - 0.4 - Partly cloudy 10 - - - -
26/04:30am 8.4 NE 6 8 1023.3 - 0.4 - Partly cloudy 10 - - - -

Other Formats:

Comma delimited format used in spreadsheet applications
http://www.bom.gov.au/fwo/IDS60701/IDS60701.94653.axf

JavaScript Object Notation format (JSON) in row-major order
http://www.bom.gov.au/fwo/IDS60701/IDS60701.94653.json